createdAt,value
2023-04-24T00:04:07.263Z,28.4
2023-04-24T00:09:59.490Z,26.2
2023-04-24T00:15:51.261Z,25.8
2023-04-24T00:21:42.365Z,25.6
2023-04-24T00:27:33.765Z,25.4
2023-04-24T00:33:24.973Z,27.3
2023-04-24T00:39:16.381Z,31
2023-04-24T00:45:07.354Z,27
2023-04-24T00:50:58.426Z,26
2023-04-24T00:56:34.452Z,25.8
2023-04-24T01:02:26.186Z,25.6
2023-04-24T01:08:18.638Z,25.4
2023-04-24T01:14:10.653Z,28.5
2023-04-24T01:20:02.780Z,30.2
2023-04-24T01:25:54.280Z,26.6
2023-04-24T01:31:46.080Z,25.9
2023-04-24T01:37:22.416Z,25.7
2023-04-24T01:43:13.889Z,25.6
2023-04-24T01:49:05.816Z,25.4
2023-04-24T01:54:57.276Z,29.3
2023-04-24T02:00:49.416Z,28.8
2023-04-24T02:06:42.713Z,26.3
2023-04-24T02:12:34.125Z,25.9
2023-04-24T02:18:25.696Z,25.7
2023-04-24T02:24:01.365Z,25.6
2023-04-24T02:29:52.362Z,25
2023-04-24T02:35:43.807Z,30.1
2023-04-24T02:41:35.503Z,27.7
2023-04-24T02:47:26.630Z,26.1
2023-04-24T02:53:18.599Z,25.8
2023-04-24T02:59:09.739Z,25.7
2023-04-24T03:05:03.370Z,25.5
2023-04-24T03:10:55.275Z,26.9
2023-04-24T03:16:47.309Z,30.7
2023-04-24T03:22:42.053Z,27.1
2023-04-24T03:28:33.320Z,26.1
2023-04-24T03:34:25.950Z,25.8
2023-04-24T03:40:02.216Z,25.6
2023-04-24T03:45:55.701Z,25.5
2023-04-24T03:51:49.442Z,27.6
2023-04-24T03:57:40.576Z,31.1
2023-04-24T04:03:33.263Z,26.9
2023-04-24T04:09:25.897Z,26
2023-04-24T04:15:17.075Z,25.7
2023-04-24T04:21:08.680Z,25.5
2023-04-24T04:27:00.376Z,25.3
2023-04-24T04:32:51.941Z,28.1
2023-04-24T04:38:44.056Z,30.6
2023-04-24T04:44:35.933Z,26.6
2023-04-24T04:50:27.776Z,25.9
2023-04-24T04:56:19.749Z,25.5
2023-04-24T05:01:59.725Z,25.3
2023-04-24T05:08:11.079Z,24.9
2023-04-24T05:14:17.359Z,24.6
2023-04-24T05:20:09.811Z,24.4
2023-04-24T05:26:00.533Z,24.1
2023-04-24T05:31:21.411Z,23.9
2023-04-24T05:37:13.595Z,23.8
2023-04-24T05:43:04.374Z,23.6
2023-04-24T05:48:40.848Z,23.4
2023-04-24T05:54:32.411Z,23.2
2023-04-24T06:00:23.767Z,23.1
2023-04-24T06:06:18.596Z,22.9
2023-04-24T06:11:40.594Z,22.8
2023-04-24T06:17:32.589Z,22.6
2023-04-24T06:23:24.041Z,22.5
2023-04-24T06:29:00.353Z,22.4
2023-04-24T06:35:00.314Z,22.3
2023-04-24T06:40:52.388Z,22.2
2023-04-24T06:46:28.480Z,22.1
2023-04-24T06:52:05.908Z,22
2023-04-24T06:57:57.065Z,21.9
2023-04-24T07:03:51.893Z,21.9
2023-04-24T07:09:44.325Z,21.8
2023-04-24T07:15:20.788Z,21.8
2023-04-24T07:20:58.180Z,21.6
2023-04-24T07:26:51.509Z,21.6
2023-04-24T07:32:28.531Z,21.6
2023-04-24T07:38:20.622Z,21.5
2023-04-24T07:44:12.353Z,21.4
2023-04-24T07:50:18.977Z,21.4
2023-04-24T07:56:13.438Z,21.4
2023-04-24T08:02:04.800Z,21.3
2023-04-24T08:08:00.959Z,21.3
2023-04-24T08:13:39.648Z,21.3
2023-04-24T08:19:31.807Z,21.2
2023-04-24T08:25:23.490Z,21.2
2023-04-24T08:42:39.423Z,21.1
2023-04-24T08:48:47.873Z,21.1
2023-04-24T08:54:39.328Z,21.1
2023-04-24T09:00:30.868Z,21.1
2023-04-24T09:06:10.517Z,21
2023-04-24T09:12:02.227Z,20.9
2023-04-24T09:17:53.947Z,20.9
2023-04-24T09:23:30.107Z,20.8
2023-04-24T09:29:22.830Z,20.8
2023-04-24T09:34:58.883Z,20.8
2023-04-24T09:40:35.090Z,20.8
2023-04-24T09:46:36.668Z,20.8
2023-04-24T09:52:31.620Z,20.8
2023-04-24T09:58:24.108Z,20.8
2023-04-24T10:04:17.265Z,20.8
2023-04-24T10:10:09.718Z,20.7
2023-04-24T10:16:01.978Z,20.7
2023-04-24T10:21:54.291Z,20.7
2023-04-24T10:27:45.276Z,20.7
2023-04-24T10:33:37.797Z,20.7
2023-04-24T10:39:29.567Z,20.7
2023-04-24T10:45:21.661Z,20.6
2023-04-24T10:51:13.604Z,20.7
2023-04-24T10:57:05.419Z,20.6
2023-04-24T11:02:58.111Z,20.6
2023-04-24T11:08:37.334Z,20.6
2023-04-24T11:14:14.207Z,20.6
